Time;durP1;ratioP1;P1;durP2;ratioP2;P2;SDS_P1;SDS_P2;PMS_P1;PMS_P2;Temp;Humidity;BMP_temperature;BMP_pressure;BME280_temperature;BME280_humidity;BME280_pressure;Samples;Min_cycle;Max_cycle;Signal;HPM_P1;HPM_P2
2021/09/28 00:01:03;;;;;;;14.90;9.25;;;;;;;4.83;100.00;100166.06;1653389;84;20987;-75
2021/09/28 00:03:30;;;;;;;17.62;9.75;;;;;;;4.86;100.00;100165.53;1660320;84;21082;-74
2021/09/28 00:05:57;;;;;;;16.05;8.68;;;;;;;4.91;100.00;100165.56;1630964;86;21045;-74
2021/09/28 00:08:24;;;;;;;19.65;9.65;;;;;;;4.92;100.00;100159.86;1655500;84;21042;-74
2021/09/28 00:10:53;;;;;;;16.82;9.15;;;;;;;4.92;100.00;100166.66;1676701;84;21484;-73
2021/09/28 00:13:19;;;;;;;17.17;9.98;;;;;;;4.91;100.00;100165.56;1677739;84;20953;-72
2021/09/28 00:15:46;;;;;;;19.05;9.80;;;;;;;4.86;100.00;100158.73;1674085;84;21079;-73
2021/09/28 00:18:14;;;;;;;16.07;9.48;;;;;;;4.86;100.00;100158.73;1664370;84;21059;-74
2021/09/28 00:20:41;;;;;;;15.15;8.93;;;;;;;4.82;100.00;100157.62;1670358;84;21842;-74
2021/09/28 00:23:13;;;;;;;19.02;9.53;;;;;;;4.78;100.00;100155.97;1667292;84;20889;-73
2021/09/28 00:25:41;;;;;;;20.08;9.88;;;;;;;4.71;100.00;100160.00;1663954;84;21546;-74
2021/09/28 00:28:08;;;;;;;20.55;10.20;;;;;;;4.71;100.00;100160.00;1678111;84;21523;-74
2021/09/28 00:30:34;;;;;;;19.10;10.00;;;;;;;4.65;100.00;100158.60;1670588;84;20937;-73
2021/09/28 00:33:01;;;;;;;15.10;9.18;;;;;;;4.62;100.00;100156.98;1673039;84;21015;-73
2021/09/28 00:35:27;;;;;;;15.43;9.40;;;;;;;4.58;100.00;100159.40;1663524;84;21524;-73
2021/09/28 00:37:54;;;;;;;15.78;9.05;;;;;;;4.54;100.00;100156.10;1664740;84;21068;-74
2021/09/28 00:40:21;;;;;;;22.37;9.95;;;;;;;4.46;100.00;100154.69;1675773;84;20929;-74
2021/09/28 00:42:49;;;;;;;19.75;9.95;;;;;;;4.46;100.00;100154.69;1698165;82;20990;-74
2021/09/28 00:45:15;;;;;;;21.48;11.35;;;;;;;4.41;100.00;100155.19;1716972;81;21102;-74
2021/09/28 00:47:42;;;;;;;22.98;11.35;;;;;;;4.41;100.00;100155.19;1698393;83;21496;-73
2021/09/28 00:50:10;;;;;;;24.27;11.90;;;;;;;4.38;100.00;100161.95;1715819;81;21518;-73
2021/09/28 00:52:37;;;;;;;27.52;11.63;;;;;;;4.31;100.00;100152.66;1737796;81;20919;-73
2021/09/28 00:55:05;;;;;;;40.88;15.00;;;;;;;4.23;100.00;100165.38;1726197;81;20900;-73
2021/09/28 00:57:32;;;;;;;27.30;13.18;;;;;;;4.23;100.00;100165.38;1720361;81;21087;-73
2021/09/28 00:59:59;;;;;;;27.73;13.13;;;;;;;4.20;100.00;100156.38;1726670;81;20918;-73
2021/09/28 01:02:26;;;;;;;25.72;13.10;;;;;;;4.17;100.00;100166.94;1733838;81;21470;-75
2021/09/28 01:04:52;;;;;;;34.90;14.23;;;;;;;4.11;100.00;100163.36;1721260;81;20954;-75
2021/09/28 01:07:19;;;;;;;25.72;12.37;;;;;;;4.07;100.00;100163.59;1724381;81;20892;-75
2021/09/28 01:09:46;;;;;;;29.75;13.18;;;;;;;4.02;100.00;100168.19;1728623;81;21560;-76
2021/09/28 01:12:12;;;;;;;25.37;13.13;;;;;;;4.02;100.00;100168.19;1724858;81;21038;-74
2021/09/28 01:14:42;;;;;;;32.08;13.45;;;;;;;3.96;100.00;100172.22;1720350;81;21494;-74
2021/09/28 01:17:14;;;;;;;26.37;13.38;;;;;;;3.93;100.00;100163.22;1670284;84;20925;-76
2021/09/28 01:19:41;;;;;;;23.97;12.60;;;;;;;3.91;100.00;100174.06;1654363;84;20920;-76
2021/09/28 01:22:08;;;;;;;33.50;14.68;;;;;;;3.89;100.00;100170.24;1672935;84;21150;-77
2021/09/28 01:24:36;;;;;;;29.87;14.15;;;;;;;3.89;100.00;100169.42;1715139;82;20930;-75
2021/09/28 01:27:03;;;;;;;27.75;13.58;;;;;;;3.89;100.00;100164.81;1728927;82;21004;-72
2021/09/28 01:29:31;;;;;;;26.90;14.10;;;;;;;3.90;100.00;100167.81;1711425;82;20907;-73
2021/09/28 01:31:58;;;;;;;27.93;13.85;;;;;;;3.90;100.00;100164.27;1720777;82;20950;-79
2021/09/28 01:34:24;;;;;;;27.07;13.13;;;;;;;3.89;100.00;100168.06;1728239;82;21197;-80
2021/09/28 01:36:51;;;;;;;22.98;12.05;;;;;;;3.87;100.00;100165.61;1722376;82;20955;-79
2021/09/28 01:39:19;;;;;;;25.77;12.10;;;;;;;3.87;100.00;100165.61;1720490;82;20910;-81
2021/09/28 01:41:48;;;;;;;26.07;12.53;;;;;;;3.81;100.00;100159.84;1719826;82;21003;-75
2021/09/28 01:44:17;;;;;;;21.23;11.85;;;;;;;3.81;100.00;100159.84;1715154;81;21055;-75
2021/09/28 01:46:47;;;;;;;23.18;13.70;;;;;;;3.78;100.00;100165.78;1686324;83;21014;-74
2021/09/28 01:49:16;;;;;;;29.67;12.63;;;;;;;3.76;100.00;100165.76;1716061;82;20966;-74
2021/09/28 01:51:43;;;;;;;21.33;11.48;;;;;;;3.73;100.00;100182.02;1715773;81;21534;-74
2021/09/28 01:54:11;;;;;;;21.70;11.10;;;;;;;3.71;100.00;100176.02;1712005;81;20853;-75
2021/09/28 01:56:38;;;;;;;18.92;10.63;;;;;;;3.72;100.00;100179.02;1690349;83;20990;-78
2021/09/28 01:59:06;;;;;;;19.42;10.18;;;;;;;3.75;100.00;100170.91;1722332;82;21054;-77
2021/09/28 02:01:33;;;;;;;16.52;10.05;;;;;;;3.76;100.00;100170.66;1730619;81;21014;-78
2021/09/28 02:03:59;;;;;;;15.95;9.68;;;;;;;3.78;100.00;100170.39;1694636;83;21576;-77
2021/09/28 02:06:29;;;;;;;17.75;9.83;;;;;;;3.78;100.00;100170.39;1715440;81;21480;-78
2021/09/28 02:08:57;;;;;;;17.75;9.43;;;;;;;3.81;100.00;100172.06;1718831;81;21482;-78
2021/09/28 02:11:23;;;;;;;18.48;9.53;;;;;;;3.86;100.00;100171.30;1681057;84;21132;-77
2021/09/28 02:13:53;;;;;;;18.62;9.13;;;;;;;3.93;100.00;100171.38;1680883;82;21562;-78
2021/09/28 02:16:21;;;;;;;16.80;10.30;;;;;;;3.97;100.00;100169.78;1665819;84;21431;-77
2021/09/28 02:18:49;;;;;;;18.20;10.32;;;;;;;3.97;100.00;100169.78;1685923;83;21493;-77
2021/09/28 02:21:16;;;;;;;18.67;10.93;;;;;;;4.01;100.00;100167.38;1718084;81;21546;-78
2021/09/28 02:23:42;;;;;;;15.32;9.70;;;;;;;4.08;100.00;100176.64;1689236;83;21511;-78
2021/09/28 02:26:09;;;;;;;15.50;10.03;;;;;;;4.20;100.00;100168.61;1720212;81;20952;-78
2021/09/28 02:28:35;;;;;;;19.57;10.32;;;;;;;4.20;100.00;100168.61;1723602;81;20980;-78
2021/09/28 02:31:03;;;;;;;18.67;10.65;;;;;;;4.29;100.00;100159.44;1689791;83;21135;-78
2021/09/28 02:33:29;;;;;;;17.80;10.58;;;;;;;4.36;100.00;100167.38;1704286;82;21536;-78
2021/09/28 02:35:56;;;;;;;18.42;10.98;;;;;;;4.42;100.00;100169.88;1707781;82;21525;-78
2021/09/28 02:38:23;;;;;;;16.50;10.75;;;;;;;4.47;100.00;100167.20;1698383;82;20883;-77
2021/09/28 02:40:49;;;;;;;20.05;11.25;;;;;;;4.51;100.00;100165.59;1716251;82;21490;-78
2021/09/28 02:43:16;;;;;;;22.05;11.35;;;;;;;4.77;100.00;100164.39;1719664;82;20974;-74
2021/09/28 02:45:47;;;;;;;27.27;11.93;;;;;;;4.77;100.00;100164.39;1730468;82;21548;-74
2021/09/28 02:48:11;;;;;;;30.02;12.03;;;;;;;4.97;100.00;100139.48;1722953;82;21756;-75
2021/09/28 02:50:39;;;;;;;21.02;10.60;;;;;;;5.14;100.00;100165.69;1720524;82;20887;-74
2021/09/28 02:53:06;;;;;;;26.75;11.40;;;;;;;5.31;100.00;100172.55;1717924;82;20967;-78
2021/09/28 02:55:33;;;;;;;26.37;9.15;;;;;;;5.47;100.00;100167.98;1727577;82;21663;-77
2021/09/28 02:58:01;;;;;;;25.30;11.00;;;;;;;5.58;100.00;100175.66;1724331;82;21434;-76
2021/09/28 03:00:29;;;;;;;27.27;10.08;;;;;;;5.68;100.00;100171.59;1725320;82;21997;-77
2021/09/28 03:02:55;;;;;;;19.10;9.58;;;;;;;5.75;100.00;100161.81;1722435;82;20942;-78
2021/09/28 03:05:22;;;;;;;21.30;10.40;;;;;;;5.88;100.00;100169.44;1725783;82;21073;-78
2021/09/28 03:07:49;;;;;;;21.75;10.43;;;;;;;5.88;100.00;100169.44;1724695;82;20863;-76
2021/09/28 03:10:16;;;;;;;20.90;9.60;;;;;;;5.96;100.00;100171.67;1729917;82;20993;-76
2021/09/28 03:12:43;;;;;;;21.95;9.78;;;;;;;6.05;100.00;100173.32;1732184;82;21935;-78
2021/09/28 03:15:11;;;;;;;28.30;8.63;;;;;;;6.06;100.00;100159.42;1726720;82;21429;-76
2021/09/28 03:17:39;;;;;;;16.65;8.28;;;;;;;6.14;100.00;100174.42;1720265;82;20874;-75
2021/09/28 03:20:08;;;;;;;22.17;8.43;;;;;;;6.18;100.00;100176.88;1721080;82;20871;-76
2021/09/28 03:22:34;;;;;;;11.53;7.10;;;;;;;6.21;100.00;100179.06;1732812;82;20953;-77
2021/09/28 03:25:01;;;;;;;8.63;6.62;;;;;;;6.23;100.00;100179.06;1717266;81;21123;-77
2021/09/28 03:27:27;;;;;;;17.00;7.20;;;;;;;6.25;100.00;100177.44;1718445;81;21059;-82
2021/09/28 03:29:54;;;;;;;23.80;7.15;;;;;;;6.25;100.00;100178.25;1714233;81;20980;-74
2021/09/28 03:32:21;;;;;;;20.95;7.00;;;;;;;6.27;100.00;100177.98;1722335;81;20905;-75
2021/09/28 03:34:49;;;;;;;11.97;6.95;;;;;;;6.27;100.00;100186.98;1743146;81;20946;-77
2021/09/28 03:37:16;;;;;;;12.30;6.90;;;;;;;6.28;100.00;100185.06;1753872;81;21496;-75
2021/09/28 03:39:42;;;;;;;11.20;6.28;;;;;;;6.29;100.00;100187.52;1738129;81;21117;-76
2021/09/28 03:42:10;;;;;;;20.32;7.03;;;;;;;6.28;100.00;100189.16;1744086;81;21946;-75
2021/09/28 03:44:38;;;;;;;12.23;6.12;;;;;;;6.28;100.00;100187.80;1742663;81;20915;-76
2021/09/28 03:47:05;;;;;;;13.15;6.40;;;;;;;6.27;100.00;100192.43;1725211;81;21058;-77
2021/09/28 03:49:33;;;;;;;12.50;5.90;;;;;;;6.25;100.00;100192.43;1729608;82;21174;-77
2021/09/28 03:52:00;;;;;;;9.58;6.15;;;;;;;6.21;100.00;100194.88;1717373;82;21421;-75
2021/09/28 03:54:27;;;;;;;10.85;6.62;;;;;;;6.20;100.00;100201.97;1717928;82;21561;-74
2021/09/28 03:56:55;;;;;;;10.43;5.97;;;;;;;6.17;100.00;100195.14;1687477;82;20978;-75
2021/09/28 03:59:21;;;;;;;10.93;6.35;;;;;;;6.17;100.00;100199.23;1689276;82;21647;-76
2021/09/28 04:01:50;;;;;;;7.37;5.55;;;;;;;6.17;100.00;100191.59;1731988;82;21436;-74
2021/09/28 04:04:16;;;;;;;9.45;5.87;;;;;;;6.17;100.00;100192.42;1730440;82;20966;-75
2021/09/28 04:06:43;;;;;;;11.63;7.05;;;;;;;6.17;100.00;100194.33;1717019;82;21443;-76
2021/09/28 04:09:10;;;;;;;12.53;6.75;;;;;;;6.17;100.00;100195.69;1730560;82;21045;-75
2021/09/28 04:11:37;;;;;;;12.20;6.80;;;;;;;6.15;100.00;100200.05;1716074;82;21215;-75
2021/09/28 04:14:06;;;;;;;13.68;7.80;;;;;;;6.17;100.00;100200.59;1719646;82;21206;-75
2021/09/28 04:16:32;;;;;;;9.78;6.47;;;;;;;6.18;100.00;100196.78;1720429;82;20931;-75
2021/09/28 04:18:59;;;;;;;9.58;6.22;;;;;;;6.19;100.00;100203.05;1729392;82;20961;-73
2021/09/28 04:21:27;;;;;;;10.28;6.65;;;;;;;6.19;100.00;100204.41;1722717;82;20982;-74
2021/09/28 04:23:54;;;;;;;17.60;8.08;;;;;;;6.18;100.00;100203.59;1716619;82;20948;-73
2021/09/28 04:26:21;;;;;;;14.23;7.03;;;;;;;6.18;100.00;100202.23;1716987;81;21096;-74
2021/09/28 04:28:48;;;;;;;13.68;7.42;;;;;;;6.20;100.00;100207.42;1705326;82;21149;-73
2021/09/28 04:31:15;;;;;;;11.55;7.00;;;;;;;6.23;100.00;100204.15;1708260;82;21480;-73
2021/09/28 04:33:44;;;;;;;10.03;6.25;;;;;;;6.26;100.00;100207.70;1710703;82;21589;-74
2021/09/28 04:36:11;;;;;;;12.25;6.87;;;;;;;6.32;100.00;100206.62;1716035;82;21077;-75
2021/09/28 04:38:38;;;;;;;13.83;6.50;;;;;;;6.37;100.00;100213.41;1712658;82;21129;-74
2021/09/28 04:41:05;;;;;;;21.68;7.40;;;;;;;6.40;100.00;100212.86;1706264;82;20978;-74
2021/09/28 04:43:31;;;;;;;14.55;6.47;;;;;;;6.41;100.00;100212.31;1707011;82;21057;-74
2021/09/28 04:45:57;;;;;;;8.48;5.65;;;;;;;6.42;100.00;100212.05;1705578;82;21024;-73
2021/09/28 04:48:24;;;;;;;12.45;6.80;;;;;;;6.45;100.00;100212.86;1703763;82;20997;-74
2021/09/28 04:50:52;;;;;;;14.38;6.53;;;;;;;6.47;100.00;100212.05;1707064;82;21108;-74
2021/09/28 04:53:22;;;;;;;12.93;6.55;;;;;;;6.49;100.00;100213.14;1709575;82;21000;-74
2021/09/28 04:55:49;;;;;;;14.85;7.30;;;;;;;6.52;100.00;100214.78;1714194;82;20969;-74
2021/09/28 04:58:15;;;;;;;10.13;6.87;;;;;;;6.55;100.00;100218.33;1709935;82;21022;-73
2021/09/28 05:00:42;;;;;;;12.30;7.10;;;;;;;6.57;100.00;100216.14;1709737;82;21001;-77
2021/09/28 05:03:09;;;;;;;14.87;6.67;;;;;;;6.59;100.00;100224.05;1715621;82;22081;-75
2021/09/28 05:05:35;;;;;;;16.50;7.08;;;;;;;6.58;100.00;100221.05;1707341;82;21061;-74
2021/09/28 05:08:04;;;;;;;12.73;7.03;;;;;;;6.59;100.00;100226.78;1707361;82;21063;-74
2021/09/28 05:10:30;;;;;;;20.27;7.22;;;;;;;6.61;100.00;100228.69;1668458;84;21065;-75
2021/09/28 05:12:58;;;;;;;17.70;6.85;;;;;;;6.59;100.00;100222.14;1718333;82;21520;-74
2021/09/28 05:15:24;;;;;;;21.15;7.65;;;;;;;6.55;100.00;100222.97;1713823;82;21228;-73
2021/09/28 05:17:52;;;;;;;16.75;7.00;;;;;;;6.53;100.00;100229.23;1715668;82;20970;-74
2021/09/28 05:20:19;;;;;;;11.30;6.53;;;;;;;6.55;100.00;100230.60;1730300;82;20945;-79
2021/09/28 05:22:45;;;;;;;16.40;8.83;;;;;;;6.57;100.00;100227.05;1722283;82;20946;-76
2021/09/28 05:25:12;;;;;;;18.20;9.68;;;;;;;6.60;100.00;100236.61;1715595;82;21054;-73
2021/09/28 05:27:38;;;;;;;21.55;9.00;;;;;;;6.62;100.00;100237.97;1726625;82;21133;-73
2021/09/28 05:30:07;;;;;;;14.95;9.18;;;;;;;6.63;100.00;100236.87;1729304;82;21005;-73
2021/09/28 05:32:33;;;;;;;16.20;6.92;;;;;;;6.68;100.00;100241.52;1730481;82;21025;-72
2021/09/28 05:35:00;;;;;;;15.55;7.03;;;;;;;6.68;100.00;100238.79;1722945;82;21022;-72
2021/09/28 05:37:27;;;;;;;16.42;8.55;;;;;;;6.69;100.00;100242.34;1718425;82;21099;-72
2021/09/28 05:39:53;;;;;;;23.40;8.78;;;;;;;6.70;100.00;100237.16;1730706;82;21803;-72
2021/09/28 05:42:20;;;;;;;26.33;8.78;;;;;;;6.72;100.00;100241.25;1729168;82;21643;-72
2021/09/28 05:44:47;;;;;;;29.67;8.88;;;;;;;6.77;100.00;100236.33;1724165;82;21066;-72
2021/09/28 05:47:13;;;;;;;23.77;8.23;;;;;;;6.82;100.00;100245.34;1714184;82;21022;-72
2021/09/28 05:49:40;;;;;;;206.93;39.65;;;;;;;6.89;100.00;100246.42;1720274;82;21021;-72
2021/09/28 05:52:11;;;;;;;54.55;12.85;;;;;;;6.94;100.00;100245.02;1724357;82;21141;-77
2021/09/28 05:54:47;;;;;;;39.73;12.18;;;;;;;7.01;100.00;100246.92;1720872;82;21497;-73
2021/09/28 05:57:17;;;;;;;137.22;21.10;;;;;;;7.06;100.00;100242.83;1726493;82;20981;-73
2021/09/28 05:59:44;;;;;;;47.78;11.68;;;;;;;7.11;100.00;100251.56;1723191;82;20989;-74
2021/09/28 06:02:10;;;;;;;28.30;10.45;;;;;;;7.18;100.00;100250.18;1708081;82;20944;-73
2021/09/28 06:04:37;;;;;;;22.93;8.65;;;;;;;7.23;100.00;100257.00;1725860;82;22107;-73
2021/09/28 06:07:04;;;;;;;13.65;8.10;;;;;;;7.27;100.00;100255.90;1714506;82;21548;-72
2021/09/28 06:09:35;;;;;;;28.32;9.80;;;;;;;7.31;100.00;100270.64;1731192;82;21454;-70
2021/09/28 06:12:06;;;;;;;29.60;11.75;;;;;;;7.34;100.00;100267.36;1724274;82;21010;-73
2021/09/28 06:14:35;;;;;;;22.07;10.43;;;;;;;7.43;100.00;100273.89;1725289;82;21517;-73
2021/09/28 06:17:02;;;;;;;17.32;10.20;;;;;;;7.52;100.00;100276.84;1722958;82;21517;-72
2021/09/28 06:19:29;;;;;;;18.67;9.95;;;;;;;7.60;100.00;100279.83;1714478;82;21582;-73
2021/09/28 06:21:56;;;;;;;17.87;10.18;;;;;;;7.70;100.00;100279.52;1718760;82;21454;-72
2021/09/28 06:24:23;;;;;;;16.02;9.13;;;;;;;7.79;100.00;100281.41;1721948;82;20994;-73
2021/09/28 06:26:49;;;;;;;15.28;9.40;;;;;;;7.85;100.00;100287.67;1722891;82;21070;-71
2021/09/28 06:29:16;;;;;;;18.37;10.68;;;;;;;7.90;100.00;100289.83;1725549;82;21195;-75
2021/09/28 06:31:43;;;;;;;21.20;10.25;;;;;;;7.97;100.00;100292.81;1708787;82;21045;-75
2021/09/28 06:34:11;;;;;;;14.95;8.45;;;;;;;7.99;100.00;100292.80;1724927;82;21509;-76
2021/09/28 06:36:38;;;;;;;14.10;8.68;;;;;;;8.01;100.00;100291.16;1714586;82;21114;-74
2021/09/28 06:39:07;;;;;;;20.43;9.60;;;;;;;8.02;100.00;100295.53;1663959;84;21018;-75
2021/09/28 06:41:34;;;;;;;23.20;9.90;;;;;;;8.02;100.00;100292.79;1718578;82;21140;-77
2021/09/28 06:44:01;;;;;;;22.65;9.45;;;;;;;8.07;100.00;100295.50;1657798;86;20960;-75
2021/09/28 06:46:28;;;;;;;18.90;9.18;;;;;;;8.09;100.00;100296.01;1705697;84;20992;-76
2021/09/28 06:48:54;;;;;;;16.52;8.25;;;;;;;8.11;100.00;100297.91;1705705;84;21007;-75
2021/09/28 06:51:21;;;;;;;14.00;8.60;;;;;;;8.14;100.00;100299.54;1705490;84;21039;-77
2021/09/28 06:53:49;;;;;;;18.00;9.08;;;;;;;8.21;100.00;100304.70;1657864;86;21828;-76
2021/09/28 06:56:20;;;;;;;19.62;10.70;;;;;;;8.25;100.00;100305.22;1705952;84;20945;-75
2021/09/28 06:58:48;;;;;;;16.87;9.60;;;;;;;8.32;100.00;100300.81;1705906;84;20948;-75
2021/09/28 07:01:14;;;;;;;31.70;11.20;;;;;;;8.38;100.00;100305.19;1721302;82;21022;-75
2021/09/28 07:03:42;;;;;;;18.02;9.15;;;;;;;8.42;100.00;100304.89;1724680;82;20970;-77
2021/09/28 07:06:09;;;;;;;18.57;8.15;;;;;;;8.51;100.00;100310.03;1727624;82;21484;-73
2021/09/28 07:08:35;;;;;;;14.00;8.48;;;;;;;8.61;100.00;100321.47;1718083;82;20903;-75
2021/09/28 07:11:02;;;;;;;13.28;8.55;;;;;;;8.77;100.00;100313.39;1726063;82;21536;-77
2021/09/28 07:13:29;;;;;;;17.35;9.18;;;;;;;8.90;100.00;100311.92;1725649;82;21097;-75
2021/09/28 07:15:56;;;;;;;14.55;8.90;;;;;;;9.00;100.00;100309.11;1721366;82;21564;-76
2021/09/28 07:18:22;;;;;;;16.70;9.28;;;;;;;9.11;100.00;100311.20;1715252;82;21508;-76
2021/09/28 07:20:50;;;;;;;15.08;8.03;;;;;;;9.21;100.00;100315.23;1718931;82;20879;-72
2021/09/28 07:23:17;;;;;;;13.55;8.10;;;;;;;9.33;100.00;100318.92;1719156;82;20989;-77
2021/09/28 07:25:44;;;;;;;18.10;7.58;;;;;;;9.48;100.00;100314.67;1724462;82;21584;-75
2021/09/28 07:28:11;;;;;;;16.85;10.88;;;;;;;9.65;100.00;100312.85;1721322;82;21013;-76
2021/09/28 07:30:39;;;;;;;14.60;9.98;;;;;;;9.94;100.00;100310.29;1721435;82;21558;-71
2021/09/28 07:33:06;;;;;;;12.35;8.20;;;;;;;10.33;100.00;100306.53;1721514;82;21101;-71
2021/09/28 07:35:33;;;;;;;13.95;9.20;;;;;;;10.64;100.00;100309.62;1714780;82;21636;-77
2021/09/28 07:37:59;;;;;;;14.07;9.18;;;;;;;11.04;100.00;100315.58;1723251;82;21034;-75
2021/09/28 07:40:26;;;;;;;16.90;9.75;;;;;;;11.39;100.00;100311.41;1716792;82;21606;-73
2021/09/28 07:42:55;;;;;;;14.40;9.25;;;;;;;11.59;97.56;100312.38;1727959;82;21557;-77
2021/09/28 07:45:24;;;;;;;19.75;9.90;;;;;;;11.68;95.86;100314.67;1725160;82;20898;-73
2021/09/28 07:47:54;;;;;;;16.27;9.10;;;;;;;11.63;93.52;100320.83;1726216;82;21013;-76
2021/09/28 07:50:27;;;;;;;17.60;9.78;;;;;;;11.68;92.87;100320.18;1723488;82;21038;-77
2021/09/28 07:52:57;;;;;;;11.73;8.53;;;;;;;11.96;92.74;100321.61;1718533;82;21116;-75
2021/09/28 07:55:27;;;;;;;14.28;8.53;;;;;;;12.47;91.76;100318.00;1700421;82;21477;-74
2021/09/28 07:57:54;;;;;;;15.40;9.10;;;;;;;12.75;87.92;100316.52;1650489;85;21200;-71
2021/09/28 08:00:23;;;;;;;12.58;8.80;;;;;;;12.76;86.75;100316.77;1643947;85;21557;-74
2021/09/28 08:03:01;;;;;;;11.97;7.78;;;;;;;12.76;86.83;100315.39;1669328;84;21512;-69
2021/09/28 08:05:33;;;;;;;11.55;7.97;;;;;;;12.79;86.24;100322.48;1667689;84;21487;-72
2021/09/28 08:08:01;;;;;;;9.45;7.33;;;;;;;12.82;84.65;100325.17;1684576;83;21083;-73
2021/09/28 08:10:35;;;;;;;15.20;8.33;;;;;;;12.78;83.15;100319.47;1703639;82;20969;-71
2021/09/28 08:13:06;;;;;;;10.85;7.40;;;;;;;12.73;83.34;100321.53;1678405;82;21560;-70
2021/09/28 08:15:36;;;;;;;11.88;7.10;;;;;;;12.71;82.92;100316.92;1699792;82;21020;-70
2021/09/28 08:18:04;;;;;;;10.68;7.10;;;;;;;12.71;83.56;100319.09;1708883;82;21041;-71
2021/09/28 08:20:30;;;;;;;9.78;6.95;;;;;;;12.77;82.70;100325.30;1704344;82;21518;-71
2021/09/28 08:23:02;;;;;;;12.88;7.05;;;;;;;12.80;81.70;100324.11;1708500;82;21093;-73
2021/09/28 08:25:37;;;;;;;12.88;7.22;;;;;;;12.77;81.45;100318.41;1686814;83;21512;-72
2021/09/28 08:30:55;;;;;;;16.12;9.35;;;;;;;13.38;80.68;100315.52;1694384;83;20957;-72
2021/09/28 08:33:21;;;;;;;13.43;7.87;;;;;;;14.05;76.73;100307.85;1698542;83;21822;-73
2021/09/28 08:35:47;;;;;;;11.43;7.75;;;;;;;14.65;75.21;100309.11;1691417;83;21192;-73
2021/09/28 08:38:14;;;;;;;14.68;7.80;;;;;;;15.32;73.38;100312.70;1697404;81;21065;-75
2021/09/28 08:40:41;;;;;;;11.22;7.70;;;;;;;15.93;71.83;100315.52;1636896;85;21152;-74
2021/09/28 08:43:09;;;;;;;11.60;7.58;;;;;;;16.17;68.79;100314.91;1693222;82;20994;-74
2021/09/28 08:45:35;;;;;;;15.95;7.95;;;;;;;16.00;68.43;100317.77;1673930;83;21764;-72
2021/09/28 08:48:04;;;;;;;23.90;8.85;;;;;;;15.61;67.06;100315.55;1727709;82;20978;-71
2021/09/28 08:50:31;;;;;;;22.80;9.98;;;;;;;15.20;68.14;100320.28;1716223;82;21026;-71
2021/09/28 08:52:59;;;;;;;14.55;9.18;;;;;;;15.22;69.88;100315.80;1721653;82;20982;-73
2021/09/28 08:55:26;;;;;;;20.35;10.38;;;;;;;15.59;68.42;100307.38;1725773;82;21025;-82
2021/09/28 08:58:16;;;;;;;20.15;11.75;;;;;;;16.02;66.58;100304.40;1727128;82;21498;-82
2021/09/28 09:00:43;;;;;;;19.48;12.28;;;;;;;16.25;64.18;100304.90;1691559;83;21160;-79
2021/09/28 09:03:27;;;;;;;16.77;9.90;;;;;;;16.24;64.02;100305.47;1705430;84;20980;-73
2021/09/28 09:05:58;;;;;;;19.45;10.20;;;;;;;16.36;63.24;100304.75;1699668;82;21573;-75
2021/09/28 09:08:33;;;;;;;21.62;11.33;;;;;;;16.62;63.39;100310.11;1721208;82;20998;-71
2021/09/28 09:11:07;;;;;;;19.32;10.10;;;;;;;16.60;62.25;100311.84;1725488;82;21521;-70
2021/09/28 09:13:42;;;;;;;18.85;10.10;;;;;;;16.33;62.02;100302.65;1725061;82;21537;-71
2021/09/28 09:16:13;;;;;;;19.40;9.40;;;;;;;16.25;62.51;100307.09;1722376;82;20997;-71
2021/09/28 09:18:42;;;;;;;18.82;10.48;;;;;;;16.49;63.00;100304.49;1729689;82;20937;-71
2021/09/28 09:21:09;;;;;;;16.30;9.68;;;;;;;16.88;62.57;100307.95;1722992;82;21094;-71
2021/09/28 09:23:38;;;;;;;17.07;10.90;;;;;;;17.06;60.78;100306.65;1716336;82;21067;-71
2021/09/28 09:26:13;;;;;;;20.92;10.15;;;;;;;17.24;59.82;100301.75;1725746;82;20950;-71
2021/09/28 09:28:53;;;;;;;13.68;9.10;;;;;;;17.49;59.55;100299.82;1723154;82;21466;-73
2021/09/28 09:31:39;;;;;;;18.20;9.58;;;;;;;17.89;58.89;100302.81;1723682;82;20930;-70
2021/09/28 09:34:14;;;;;;;16.65;8.63;;;;;;;18.07;58.21;100301.40;1718114;82;21037;-75
2021/09/28 09:36:43;;;;;;;14.47;8.98;;;;;;;17.78;56.49;100306.62;1720855;82;21154;-70
2021/09/28 09:39:11;;;;;;;16.62;8.23;;;;;;;17.04;56.90;100318.66;1713801;81;20991;-70
2021/09/28 09:41:39;;;;;;;16.80;7.65;;;;;;;16.38;58.82;100311.58;1731600;81;21026;-70
2021/09/28 09:44:15;;;;;;;16.35;7.85;;;;;;;15.91;60.19;100316.42;1706612;82;20993;-70
2021/09/28 09:46:47;;;;;;;13.10;7.90;;;;;;;15.53;61.74;100327.45;1713049;83;21014;-69
2021/09/28 09:49:23;;;;;;;;;;;;;;;15.13;62.17;100324.92;1708093;83;21135;-73
2021/09/28 09:51:54;;;;;;;13.50;6.80;;;;;;;14.74;63.06;100323.74;1760481;80;20169;-72
2021/09/28 09:54:33;;;;;;;22.93;10.72;;;;;;;14.43;64.14;100321.95;1744607;80;21025;-72
2021/09/28 09:57:05;;;;;;;20.92;7.70;;;;;;;14.18;65.00;100323.48;1726271;82;21053;-73
2021/09/28 09:59:31;;;;;;;29.00;7.60;;;;;;;13.90;65.82;100328.98;1729003;82;21469;-73
2021/09/28 10:01:58;;;;;;;12.85;7.40;;;;;;;13.68;67.61;100329.89;1719893;82;21143;-72
2021/09/28 10:04:25;;;;;;;23.75;7.25;;;;;;;13.52;68.20;100332.23;1731443;82;21036;-73
2021/09/28 10:06:53;;;;;;;15.65;7.20;;;;;;;13.39;68.88;100342.78;1735701;82;20911;-73
2021/09/28 10:09:27;;;;;;;19.00;7.20;;;;;;;13.28;68.75;100340.63;1690277;82;21046;-73
2021/09/28 10:12:05;;;;;;;13.40;6.95;;;;;;;13.17;69.46;100340.89;1731356;82;20896;-73
2021/09/28 10:14:45;;;;;;;11.83;6.97;;;;;;;13.10;70.06;100341.86;1720582;82;21152;-74
2021/09/28 10:17:39;;;;;;;13.00;6.83;;;;;;;13.11;70.85;100340.73;1728536;82;21089;-75
2021/09/28 10:20:08;;;;;;;15.35;6.95;;;;;;;13.17;70.47;100339.51;1714848;82;20984;-75
2021/09/28 10:22:53;;;;;;;18.05;6.97;;;;;;;13.26;70.87;100340.13;1716499;82;21136;-74
2021/09/28 10:25:24;;;;;;;21.93;6.75;;;;;;;13.33;71.01;100337.15;1710213;82;21033;-74
2021/09/28 10:27:55;;;;;;;26.90;7.00;;;;;;;13.43;69.79;100336.08;1711449;82;21141;-74
2021/09/28 10:30:41;;;;;;;15.28;6.75;;;;;;;13.44;69.15;100344.60;1699953;82;21006;-76
2021/09/28 10:33:29;;;;;;;22.82;8.75;;;;;;;13.45;69.59;100339.34;1693547;82;21009;-79
2021/09/28 10:36:11;;;;;;;14.93;6.55;;;;;;;13.52;69.80;100335.00;1721364;81;21085;-81
2021/09/28 10:38:53;;;;;;;15.50;6.45;;;;;;;13.63;68.78;100333.35;1709596;82;21029;-80
2021/09/28 10:41:42;;;;;;;26.82;7.17;;;;;;;13.70;68.75;100328.20;1710030;82;21562;-79
2021/09/28 10:44:36;;;;;;;21.77;6.72;;;;;;;13.84;68.12;100338.57;1703584;82;20954;-77
2021/09/28 10:46:59;;;;;;;24.60;6.58;;;;;;;14.06;67.06;100333.52;1710671;82;21088;-79
2021/09/28 10:49:29;;;;;;;14.58;6.05;;;;;;;14.51;66.15;100334.12;1707540;82;21112;-77
2021/09/28 10:52:25;;;;;;;20.72;5.95;;;;;;;14.91;63.76;100326.52;1714455;82;21057;-77
2021/09/28 10:55:13;;;;;;;17.32;5.17;;;;;;;15.14;62.56;100329.88;1705992;83;21199;-77
2021/09/28 10:58:14;;;;;;;14.83;5.10;;;;;;;15.22;59.81;100329.06;1702884;82;20966;-78
2021/09/28 11:00:49;;;;;;;17.45;5.22;;;;;;;15.17;58.42;100334.20;1702571;81;21557;-79
2021/09/28 11:03:17;;;;;;;21.62;5.15;;;;;;;15.10;57.82;100335.83;1719533;81;20990;-72
2021/09/28 11:05:51;;;;;;;20.92;4.72;;;;;;;15.05;59.12;100334.61;1722491;82;20962;-71
2021/09/28 11:08:20;;;;;;;13.55;4.05;;;;;;;14.94;56.28;100333.34;1727306;82;21153;-71
2021/09/28 11:10:56;;;;;;;13.98;4.42;;;;;;;14.80;58.32;100327.97;1702215;83;20993;-72
2021/09/28 11:13:32;;;;;;;26.68;6.50;;;;;;;14.77;58.66;100336.34;1724272;82;21478;-71
2021/09/28 11:16:00;;;;;;;15.40;4.42;;;;;;;14.80;59.73;100334.31;1720200;81;20962;-71
2021/09/28 11:18:27;;;;;;;18.32;4.90;;;;;;;14.89;60.46;100334.89;1716794;82;20931;-72
2021/09/28 11:20:56;;;;;;;16.27;4.90;;;;;;;14.95;59.99;100330.25;1743624;81;21734;-70
2021/09/28 11:23:22;;;;;;;19.02;5.20;;;;;;;15.02;59.09;100329.16;1699363;81;20926;-71
2021/09/28 11:25:52;;;;;;;18.62;5.12;;;;;;;15.12;59.18;100330.21;1752247;80;20910;-68